Maersk Drummond — A8JF3 — position and weather

sailwx.info

Track history (hours):
 
Tides and Currents Weather Stations Pressure Air Temp Water Temp Dewpoint Dewpoint Depression Visibility Wind Speed Wind Dir Waves Ship Positions

Maersk Drummond

Last reported at 2014-Dec-17 22:30 UTC. Time now 2014-Dec-20 17:53 UTC.
Position N 26°10' W 079°18'.

Length 294 m; draft 11.6 m.

Type: Ship (hazmat cat A). MMSI: 636091082.

Date/timePositionNaut miles runAvg speedWind from/ knotsBaromVisibWave heightAir tempDewpointWater temp
2014-Dec-17 22:30N 26°10' W 079°18'1414.8
2014-Dec-17 21:33N 25°58' W 079°27'1515.3
2014-Dec-17 20:33N 25°45' W 079°35'5016.0
2014-Dec-17 17:26N 25°00' W 080°00'11314.3
2014-Dec-17 09:33N 24°10' W 081°51'1515.0
2014-Dec-17 08:33N 24°10' W 082°07'2315.9
2014-Dec-17 07:08N 24°10' W 082°32'1116.1
2014-Dec-17 06:28N 24°09' W 082°44'51812.6
2014-Dec-15 13:29N 29°55' W 089°57'8 9.0
2014-Dec-15 12:33N 29°55' W 090°07'0 0.0
2014-Dec-15 06:22N 29°55' W 090°07'4 0.6
2014-Dec-14 23:18N 29°57' W 090°03'249 7.9
2014-Dec-13 15:32N 29°21' W 094°47'1212.0
2014-Dec-13 14:33N 29°32' W 094°54'1010.4
2014-Dec-13 13:33N 29°41' W 094°59'1 0.8
2014-Dec-13 12:33N 29°41' W 094°60'0 0.0
2014-Dec-13 11:33N 29°41' W 094°60'0 0.0
2014-Dec-13 10:33N 29°41' W 094°60'0 0.0
2014-Dec-13 09:33N 29°41' W 094°60'0 0.0
2014-Dec-13 08:33N 29°41' W 094°60'0 0.0
2014-Dec-13 07:33N 29°41' W 094°60'0 0.0
2014-Dec-13 06:33N 29°41' W 094°60'0 0.0
2014-Dec-13 05:33N 29°41' W 094°60'0 0.0
2014-Dec-13 04:30N 29°41' W 094°60'0 0.0
2014-Dec-13 03:30N 29°41' W 094°60'0 0.0
2014-Dec-13 02:33N 29°41' W 094°60'0 0.0
2014-Dec-13 01:27N 29°41' W 094°60'0 0.0
2014-Dec-13 00:27N 29°41' W 094°60'0 0.0
2014-Dec-12 23:33N 29°41' W 094°60'0 0.0
2014-Dec-12 22:33N 29°41' W 094°60'0 0.0
2014-Dec-12 21:33N 29°41' W 094°60'0 0.0
2014-Dec-12 20:33N 29°41' W 094°60'0 0.0
2014-Dec-12 19:30N 29°41' W 094°60'0 0.0
2014-Dec-12 18:33N 29°41' W 094°60'0 0.0
2014-Dec-12 17:33N 29°41' W 094°60'0 0.0
2014-Dec-12 16:33N 29°41' W 094°60'0 0.0
2014-Dec-12 15:33N 29°41' W 094°60'0 0.0
2014-Dec-12 14:33N 29°41' W 094°60'0 0.0
2014-Dec-12 13:33N 29°41' W 094°60'0 0.0
2014-Dec-12 12:33N 29°41' W 094°60'0 0.0
2014-Dec-12 11:30N 29°41' W 094°60'0 0.0
2014-Dec-12 10:33N 29°41' W 094°60'0 0.0
2014-Dec-12 09:33N 29°41' W 094°60'0 0.0
2014-Dec-12 08:33N 29°41' W 094°60'0 0.0
2014-Dec-12 07:30N 29°41' W 094°60'0 0.0
2014-Dec-12 06:30N 29°41' W 094°60'0 0.0
2014-Dec-12 05:33N 29°41' W 094°60'2 2.0
2014-Dec-12 04:33N 29°39' W 094°58'1111.4
2014-Dec-12 03:33N 29°30' W 094°52'1111.0
2014-Dec-12 02:31N 29°21' W 094°43'  
2014-Dec-09 12:34N 19°46' W 096°11'1515.1
2014-Dec-09 11:33N 19°32' W 096°04'1514.9
2014-Dec-09 10:34N 19°18' W 095°58'1010.4
2014-Dec-09 09:33N 19°12' W 096°06'2 1.6
2014-Dec-09 08:33N 19°13' W 096°08'0 0.0
2014-Dec-09 07:33N 19°13' W 096°08'0 0.0
2014-Dec-09 06:33N 19°13' W 096°08'0 0.0
2014-Dec-09 05:33N 19°13' W 096°08'0 0.0
2014-Dec-09 04:33N 19°13' W 096°08'0 0.0
2014-Dec-09 03:33N 19°13' W 096°08'0 0.0
2014-Dec-09 02:33N 19°13' W 096°08'0 0.0
2014-Dec-09 01:33N 19°13' W 096°08'0 0.0
2014-Dec-09 00:33N 19°13' W 096°08'0 0.0
2014-Dec-08 23:33N 19°13' W 096°08'0 0.0
2014-Dec-08 22:33N 19°13' W 096°08'0 0.0
2014-Dec-08 21:33N 19°13' W 096°08'0 0.0
2014-Dec-08 20:33N 19°13' W 096°08'0 0.0
2014-Dec-08 19:33N 19°13' W 096°08'0 0.2
2014-Dec-08 18:33N 19°12' W 096°08'8 8.0
2014-Dec-08 17:33N 19°12' W 095°59'9 8.7
2014-Dec-08 16:33N 19°14' W 095°50'  
Track history (hours):
 
Tides and Currents Weather Stations Pressure Air Temp Water Temp Dewpoint Dewpoint Depression Visibility Wind Speed Wind Dir Waves Ship Positions

Maersk Drummond

Last reported at 2014-Dec-17 22:30 UTC. Time now 2014-Dec-20 17:53 UTC.
Position N 26°10' W 079°18'.

Length 294 m; draft 11.6 m.

Type: Ship (hazmat cat A). MMSI: 636091082.

Date/timePositionNaut miles runAvg speedWind from/ knotsBaromVisibWave heightAir tempDewpointWater temp
2014-Dec-17 22:30N 26°10' W 079°18'1414.8
2014-Dec-17 21:33N 25°58' W 079°27'1515.3
2014-Dec-17 20:33N 25°45' W 079°35'5016.0
2014-Dec-17 17:26N 25°00' W 080°00'11314.3
2014-Dec-17 09:33N 24°10' W 081°51'1515.0
2014-Dec-17 08:33N 24°10' W 082°07'2315.9
2014-Dec-17 07:08N 24°10' W 082°32'1116.1
2014-Dec-17 06:28N 24°09' W 082°44'51812.6
2014-Dec-15 13:29N 29°55' W 089°57'8 9.0
2014-Dec-15 12:33N 29°55' W 090°07'0 0.0
2014-Dec-15 06:22N 29°55' W 090°07'4 0.6
2014-Dec-14 23:18N 29°57' W 090°03'249 7.9
2014-Dec-13 15:32N 29°21' W 094°47'1212.0
2014-Dec-13 14:33N 29°32' W 094°54'1010.4
2014-Dec-13 13:33N 29°41' W 094°59'1 0.8
2014-Dec-13 12:33N 29°41' W 094°60'0 0.0
2014-Dec-13 11:33N 29°41' W 094°60'0 0.0
2014-Dec-13 10:33N 29°41' W 094°60'0 0.0
2014-Dec-13 09:33N 29°41' W 094°60'0 0.0
2014-Dec-13 08:33N 29°41' W 094°60'0 0.0
2014-Dec-13 07:33N 29°41' W 094°60'0 0.0
2014-Dec-13 06:33N 29°41' W 094°60'0 0.0
2014-Dec-13 05:33N 29°41' W 094°60'0 0.0
2014-Dec-13 04:30N 29°41' W 094°60'0 0.0
2014-Dec-13 03:30N 29°41' W 094°60'0 0.0
2014-Dec-13 02:33N 29°41' W 094°60'0 0.0
2014-Dec-13 01:27N 29°41' W 094°60'0 0.0
2014-Dec-13 00:27N 29°41' W 094°60'0 0.0
2014-Dec-12 23:33N 29°41' W 094°60'0 0.0
2014-Dec-12 22:33N 29°41' W 094°60'0 0.0
2014-Dec-12 21:33N 29°41' W 094°60'0 0.0
2014-Dec-12 20:33N 29°41' W 094°60'0 0.0
2014-Dec-12 19:30N 29°41' W 094°60'0 0.0
2014-Dec-12 18:33N 29°41' W 094°60'0 0.0
2014-Dec-12 17:33N 29°41' W 094°60'0 0.0
2014-Dec-12 16:33N 29°41' W 094°60'0 0.0
2014-Dec-12 15:33N 29°41' W 094°60'0 0.0
2014-Dec-12 14:33N 29°41' W 094°60'0 0.0
2014-Dec-12 13:33N 29°41' W 094°60'0 0.0
2014-Dec-12 12:33N 29°41' W 094°60'0 0.0
2014-Dec-12 11:30N 29°41' W 094°60'0 0.0
2014-Dec-12 10:33N 29°41' W 094°60'0 0.0
2014-Dec-12 09:33N 29°41' W 094°60'0 0.0
2014-Dec-12 08:33N 29°41' W 094°60'0 0.0
2014-Dec-12 07:30N 29°41' W 094°60'0 0.0
2014-Dec-12 06:30N 29°41' W 094°60'0 0.0
2014-Dec-12 05:33N 29°41' W 094°60'2 2.0
2014-Dec-12 04:33N 29°39' W 094°58'1111.4
2014-Dec-12 03:33N 29°30' W 094°52'1111.0
2014-Dec-12 02:31N 29°21' W 094°43'  
2014-Dec-09 12:34N 19°46' W 096°11'1515.1
2014-Dec-09 11:33N 19°32' W 096°04'1514.9
2014-Dec-09 10:34N 19°18' W 095°58'1010.4
2014-Dec-09 09:33N 19°12' W 096°06'2 1.6
2014-Dec-09 08:33N 19°13' W 096°08'0 0.0
2014-Dec-09 07:33N 19°13' W 096°08'0 0.0
2014-Dec-09 06:33N 19°13' W 096°08'0 0.0
2014-Dec-09 05:33N 19°13' W 096°08'0 0.0
2014-Dec-09 04:33N 19°13' W 096°08'0 0.0
2014-Dec-09 03:33N 19°13' W 096°08'0 0.0
2014-Dec-09 02:33N 19°13' W 096°08'0 0.0
2014-Dec-09 01:33N 19°13' W 096°08'0 0.0
2014-Dec-09 00:33N 19°13' W 096°08'0 0.0
2014-Dec-08 23:33N 19°13' W 096°08'0 0.0
2014-Dec-08 22:33N 19°13' W 096°08'0 0.0
2014-Dec-08 21:33N 19°13' W 096°08'0 0.0
2014-Dec-08 20:33N 19°13' W 096°08'0 0.0
2014-Dec-08 19:33N 19°13' W 096°08'0 0.2
2014-Dec-08 18:33N 19°12' W 096°08'8 8.0
2014-Dec-08 17:33N 19°12' W 095°59'9 8.7
2014-Dec-08 16:33N 19°14' W 095°50'  

Dump ship's entire track history